Time;durP1;ratioP1;P1;durP2;ratioP2;P2;SDS_P1;SDS_P2;PMS_P1;PMS_P2;Temp;Humidity;BMP_temperature;BMP_pressure;BME280_temperature;BME280_humidity;BME280_pressure;Samples;Min_cycle;Max_cycle;Signal;HPM_P1;HPM_P2
2024/03/05 00:01:23;;;;;;;22.30;16.70;;;;;;;11.01;76.34;99771.72;10419812;28;20052;-62
2024/03/05 00:06:29;;;;;;;20.55;14.75;;;;;;;11.00;76.45;99771.84;10422425;28;20048;-62
2024/03/05 00:11:30;;;;;;;22.85;15.32;;;;;;;10.92;76.55;99746.75;10426647;28;20057;-62
2024/03/05 00:16:32;;;;;;;20.73;15.45;;;;;;;10.99;76.42;99756.84;10423706;28;20055;-62
2024/03/05 00:21:33;;;;;;;21.52;15.80;;;;;;;10.77;76.73;99737.47;10422284;28;20048;-61
2024/03/05 00:26:38;;;;;;;22.20;16.37;;;;;;;10.98;76.68;99760.50;10402538;28;20037;-62
2024/03/05 00:31:40;;;;;;;26.30;17.85;;;;;;;11.00;76.70;99758.53;10414683;28;20134;-62
2024/03/05 00:36:42;;;;;;;23.88;17.38;;;;;;;10.94;76.97;99760.78;10409955;28;20055;-61
2024/03/05 00:41:43;;;;;;;22.73;16.52;;;;;;;11.01;76.79;99760.22;10422280;28;20056;-62
2024/03/05 00:46:44;;;;;;;19.98;15.85;;;;;;;11.05;76.65;99757.16;10401212;28;20067;-62
2024/03/05 00:51:47;;;;;;;22.30;16.65;;;;;;;11.11;76.02;99763.75;10419366;28;20115;-62
2024/03/05 00:56:48;;;;;;;22.02;14.93;;;;;;;11.10;75.60;99756.72;10394879;28;20049;-62
2024/03/05 01:01:50;;;;;;;19.52;14.98;;;;;;;11.09;75.68;99757.69;10406057;28;20070;-63
2024/03/05 01:06:51;;;;;;;20.85;15.57;;;;;;;11.18;75.11;99754.19;10427315;28;20051;-63
2024/03/05 01:11:53;;;;;;;20.90;15.30;;;;;;;11.14;75.09;99739.50;10391780;28;20514;-61
2024/03/05 01:16:55;;;;;;;19.65;14.73;;;;;;;11.18;74.54;99750.69;10425990;28;20048;-63
2024/03/05 01:21:58;;;;;;;23.20;16.27;;;;;;;11.18;74.36;99748.88;10399924;28;20048;-62
2024/03/05 01:26:59;;;;;;;20.55;15.30;;;;;;;11.19;74.24;99749.72;10431062;28;20048;-62
2024/03/05 01:32:01;;;;;;;20.88;15.95;;;;;;;11.17;74.46;99749.88;10429998;28;20770;-62
2024/03/05 01:37:04;;;;;;;21.00;15.55;;;;;;;11.17;73.94;99755.19;10433226;28;20724;-63
2024/03/05 01:42:08;;;;;;;24.00;16.20;;;;;;;11.07;74.21;99749.00;10417633;28;20227;-62
2024/03/05 01:47:10;;;;;;;20.83;15.05;;;;;;;11.00;74.33;99751.38;10386696;28;20041;-61
2024/03/05 01:52:14;;;;;;;20.80;14.82;;;;;;;11.03;74.51;99751.09;10410151;28;20601;-62
2024/03/05 01:57:16;;;;;;;21.83;15.23;;;;;;;11.02;75.23;99753.91;10385453;28;20131;-61
2024/03/05 02:02:19;;;;;;;21.77;15.63;;;;;;;11.00;75.71;99746.06;10417286;28;20056;-62
2024/03/05 02:07:23;;;;;;;22.50;15.63;;;;;;;10.94;76.15;99755.47;10430125;28;20395;-62
2024/03/05 02:12:25;;;;;;;;;;;;;;;10.86;76.77;99751.78;10410863;28;20061;-63
2024/03/05 02:17:27;;;;;;;23.80;16.60;;;;;;;10.81;77.46;99759.34;10401624;28;20067;-63
2024/03/05 02:22:29;;;;;;;22.88;15.85;;;;;;;10.88;77.27;99761.31;10390856;28;20060;-62
2024/03/05 02:27:36;;;;;;;27.80;17.65;;;;;;;10.89;77.17;99756.84;10424260;28;20644;-62
2024/03/05 02:32:40;;;;;;;23.77;16.45;;;;;;;10.89;77.36;99768.31;10419997;28;20099;-62
2024/03/05 02:37:42;;;;;;;27.13;19.05;;;;;;;10.85;76.63;99750.09;10433515;28;20643;-63
2024/03/05 02:42:44;;;;;;;26.83;18.05;;;;;;;10.89;76.92;99765.66;10441681;28;20060;-63
2024/03/05 02:47:46;;;;;;;25.67;18.20;;;;;;;10.88;76.81;99766.63;10439032;28;20725;-62
2024/03/05 02:52:47;;;;;;;24.67;18.27;;;;;;;10.90;76.96;99764.69;10442035;28;20076;-62
2024/03/05 02:57:49;;;;;;;27.13;18.90;;;;;;;10.81;76.96;99746.88;10438722;28;20562;-62
2024/03/05 03:02:51;;;;;;;24.80;17.77;;;;;;;10.91;76.97;99770.84;10439096;28;20053;-62
2024/03/05 03:07:52;;;;;;;26.55;17.35;;;;;;;10.81;77.81;99767.31;10437002;28;20564;-64
2024/03/05 03:12:54;;;;;;;23.60;16.10;;;;;;;10.65;78.17;99757.22;10435757;28;20123;-64
2024/03/05 03:17:57;;;;;;;27.08;18.55;;;;;;;10.69;78.00;99771.91;10423214;28;20049;-63
2024/03/05 03:23:00;;;;;;;23.48;17.27;;;;;;;10.57;78.48;99777.34;10435206;28;20060;-62
2024/03/05 03:28:02;;;;;;;23.80;17.33;;;;;;;10.48;78.81;99775.50;10435138;28;20138;-63
2024/03/05 03:33:04;;;;;;;26.98;17.05;;;;;;;10.48;79.05;99775.50;10392613;28;20466;-62
2024/03/05 03:38:08;;;;;;;28.33;18.83;;;;;;;10.60;78.36;99779.75;10415666;28;20051;-63
2024/03/05 03:43:10;;;;;;;25.05;17.58;;;;;;;10.64;78.28;99774.16;10434147;28;22301;-62
2024/03/05 03:48:12;;;;;;;25.27;17.60;;;;;;;10.56;78.44;99750.88;10418703;28;20056;-63
2024/03/05 03:53:14;;;;;;;23.73;17.63;;;;;;;10.65;78.21;99758.06;10432519;28;20141;-62
2024/03/05 03:58:16;;;;;;;24.02;16.85;;;;;;;10.66;77.92;99769.53;10415794;28;20048;-62
2024/03/05 04:03:17;;;;;;;26.80;19.20;;;;;;;10.54;78.29;99767.00;10404823;28;20057;-63
2024/03/05 04:08:19;;;;;;;26.98;18.90;;;;;;;10.56;78.39;99762.34;10434018;28;20053;-61
2024/03/05 04:13:20;;;;;;;26.02;19.02;;;;;;;10.60;78.07;99763.78;10435544;28;20162;-62
2024/03/05 04:18:22;;;;;;;24.55;18.70;;;;;;;10.44;78.72;99774.09;10427869;28;20049;-62
2024/03/05 04:23:24;;;;;;;27.38;19.00;;;;;;;10.47;79.07;99787.13;10402243;28;20123;-62
2024/03/05 04:28:35;;;;;;;25.58;17.95;;;;;;;10.35;79.31;99789.03;10419911;28;20579;-63
2024/03/05 04:33:37;;;;;;;26.63;19.38;;;;;;;10.36;79.89;99797.88;10429415;28;20048;-62
2024/03/05 04:38:40;;;;;;;27.10;17.80;;;;;;;10.32;80.01;99801.75;10434878;28;20091;-63
2024/03/05 04:43:42;;;;;;;27.60;19.33;;;;;;;10.23;80.55;99792.72;10414321;28;20063;-62
2024/03/05 04:48:44;;;;;;;24.60;18.05;;;;;;;10.23;80.86;99806.88;10415558;28;20060;-63
2024/03/05 04:53:45;;;;;;;27.58;18.88;;;;;;;10.27;80.78;99804.81;10417868;28;20055;-61
2024/03/05 04:58:47;;;;;;;24.38;17.33;;;;;;;10.37;80.83;99812.84;10411025;28;20044;-63
2024/03/05 05:03:48;;;;;;;23.77;17.48;;;;;;;10.36;79.78;99803.19;10432072;28;20542;-64
2024/03/05 05:08:50;;;;;;;27.45;19.25;;;;;;;10.17;79.73;99778.13;10393016;28;20055;-63
2024/03/05 05:13:52;;;;;;;26.88;18.63;;;;;;;10.36;79.83;99816.50;10428328;28;20097;-62
2024/03/05 05:18:54;;;;;;;27.52;19.45;;;;;;;10.28;79.53;99811.78;10437608;28;20406;-64
2024/03/05 05:23:55;;;;;;;28.13;19.63;;;;;;;10.17;80.40;99811.88;10420946;28;20182;-62
2024/03/05 05:28:56;;;;;;;28.25;19.45;;;;;;;10.10;80.89;99811.53;10437217;28;20056;-62
2024/03/05 05:33:59;;;;;;;26.88;19.55;;;;;;;10.06;81.55;99818.97;10411230;28;20051;-62
2024/03/05 05:39:01;;;;;;;25.13;18.92;;;;;;;10.08;81.02;99816.16;10403232;28;20059;-62
2024/03/05 05:44:02;;;;;;;27.65;19.45;;;;;;;10.14;81.14;99818.31;10418284;28;20527;-63
2024/03/05 05:49:05;;;;;;;27.70;18.67;;;;;;;10.00;80.94;99808.84;10397802;28;20053;-63
2024/03/05 05:54:10;;;;;;;29.45;19.75;;;;;;;10.00;81.15;99823.97;10417169;28;20108;-63
2024/03/05 05:59:12;;;;;;;25.85;18.45;;;;;;;10.02;81.21;99830.00;10416405;28;20053;-63
2024/03/05 06:04:15;;;;;;;25.05;19.17;;;;;;;10.01;81.18;99831.81;10419231;28;20195;-63
2024/03/05 06:09:27;;;;;;;28.70;19.90;;;;;;;10.03;81.22;99829.84;10435438;28;20079;-62
2024/03/05 06:14:31;;;;;;;28.30;18.75;;;;;;;10.07;80.69;99831.28;10422715;28;20059;-62
2024/03/05 06:19:35;;;;;;;26.50;18.50;;;;;;;10.08;80.44;99835.63;10421442;28;20059;-62
2024/03/05 06:24:36;;;;;;;30.00;19.97;;;;;;;9.89;80.27;99806.25;10416888;28;20691;-64
2024/03/05 06:29:40;;;;;;;29.55;19.67;;;;;;;10.07;80.59;99841.94;10403332;28;20177;-62
2024/03/05 06:34:43;;;;;;;31.52;20.02;;;;;;;10.08;80.61;99851.56;10415409;28;20056;-62
2024/03/05 06:39:46;;;;;;;28.75;19.17;;;;;;;10.15;80.67;99851.03;10429894;28;20140;-62
2024/03/05 06:44:51;;;;;;;28.55;19.15;;;;;;;10.19;80.58;99849.81;10407512;28;20072;-63
2024/03/05 06:49:57;;;;;;;25.42;17.73;;;;;;;10.27;80.17;99853.50;10417862;28;20057;-62
2024/03/05 07:00:18;;;;;;;29.17;19.45;;;;;;;10.30;79.35;99857.75;10422919;28;20129;-62
2024/03/05 07:05:22;;;;;;;28.60;19.10;;;;;;;10.35;79.58;99865.34;10418515;28;20119;-62
2024/03/05 07:10:28;;;;;;;37.72;20.58;;;;;;;10.40;79.48;99860.47;10433541;28;20062;-62
2024/03/05 07:15:29;;;;;;;46.55;22.65;;;;;;;10.38;78.81;99865.09;10419951;28;20056;-62
2024/03/05 07:20:33;;;;;;;32.55;20.35;;;;;;;10.27;78.54;99869.47;10441973;28;20646;-63
2024/03/05 07:25:34;;;;;;;33.75;20.02;;;;;;;10.29;79.04;99871.19;10424066;28;20041;-63
2024/03/05 07:30:37;;;;;;;31.92;20.52;;;;;;;10.30;78.78;99883.47;10413016;28;20166;-63
2024/03/05 07:35:40;;;;;;;41.05;22.33;;;;;;;10.30;78.53;99870.19;10403457;28;20055;-62
2024/03/05 07:40:42;;;;;;;24.65;18.55;;;;;;;10.39;78.29;99877.44;10430003;28;20079;-63
2024/03/05 07:45:43;;;;;;;27.83;19.38;;;;;;;10.33;76.92;99864.59;10428200;28;20052;-62
2024/03/05 07:50:49;;;;;;;27.45;17.60;;;;;;;10.38;76.51;99879.22;10416581;28;20057;-63
2024/03/05 07:55:50;;;;;;;27.77;18.63;;;;;;;10.37;76.03;99876.69;10427997;28;20056;-62
2024/03/05 08:00:52;;;;;;;27.88;18.67;;;;;;;10.22;75.76;99861.06;10408853;28;20063;-62
2024/03/05 08:05:54;;;;;;;26.90;18.05;;;;;;;10.31;76.08;99871.88;10429125;28;20045;-62
2024/03/05 08:10:56;;;;;;;30.65;19.33;;;;;;;10.36;76.35;99865.22;10412701;28;20125;-62
2024/03/05 08:15:58;;;;;;;28.67;18.23;;;;;;;10.49;75.85;99872.97;10408047;28;20066;-62
2024/03/05 08:21:03;;;;;;;27.80;18.05;;;;;;;10.49;75.48;99878.31;10429037;28;20578;-62
2024/03/05 08:26:05;;;;;;;27.73;19.00;;;;;;;10.58;75.07;99887.31;10431213;28;20052;-62
2024/03/05 08:31:10;;;;;;;42.92;19.63;;;;;;;10.68;75.65;99888.22;10427664;28;20500;-62
2024/03/05 08:36:12;;;;;;;36.25;20.63;;;;;;;10.71;75.70;99882.63;10431733;28;20126;-63
2024/03/05 08:41:16;;;;;;;51.28;22.95;;;;;;;10.73;75.19;99882.47;10429028;28;20052;-63
2024/03/05 08:46:19;;;;;;;29.45;19.20;;;;;;;10.71;75.15;99879.94;10391398;28;20060;-63
2024/03/05 08:51:21;;;;;;;39.88;21.38;;;;;;;10.67;75.67;99878.53;10418063;28;20071;-63
2024/03/05 08:56:25;;;;;;;30.05;20.50;;;;;;;10.79;75.70;99885.47;10421969;28;20467;-61
2024/03/05 09:01:27;;;;;;;27.67;20.08;;;;;;;10.81;76.32;99887.13;10389449;28;20055;-62
2024/03/05 09:06:30;;;;;;;32.53;21.20;;;;;;;10.87;76.26;99884.78;10413274;28;20098;-62
2024/03/05 09:11:35;;;;;;;30.70;20.52;;;;;;;10.81;76.67;99888.00;10402758;28;20049;-62
2024/03/05 09:16:40;;;;;;;;;;;;;;;10.90;78.01;99883.66;10377359;28;20055;-63
2024/03/05 09:21:44;;;;;;;27.35;18.60;;;;;;;10.91;77.66;99888.88;10384132;28;19936;-63
2024/03/05 09:26:47;;;;;;;26.30;18.57;;;;;;;10.85;79.07;99884.06;10424857;28;20133;-62
2024/03/05 09:31:48;;;;;;;30.60;21.23;;;;;;;10.80;79.67;99891.63;10401005;28;20053;-63
2024/03/05 09:36:52;;;;;;;30.17;19.17;;;;;;;10.72;80.67;99899.41;10408692;28;22240;-64
2024/03/05 09:41:53;;;;;;;29.83;20.45;;;;;;;10.61;81.48;99898.56;10438627;28;20467;-62
2024/03/05 09:46:56;;;;;;;29.73;21.05;;;;;;;10.66;82.17;99905.28;10418854;28;20051;-70
2024/03/05 09:51:58;;;;;;;30.10;21.45;;;;;;;10.53;83.09;99900.19;10425370;28;20106;-73
2024/03/05 09:57:04;;;;;;;32.20;20.67;;;;;;;10.66;83.27;99914.13;10413509;28;20560;-70
2024/03/05 10:02:10;;;;;;;31.77;22.25;;;;;;;10.56;83.70;99914.06;10429618;28;20052;-70
2024/03/05 10:07:23;;;;;;;29.05;20.83;;;;;;;10.46;84.80;99915.81;10427126;28;20062;-69
2024/03/05 10:12:27;;;;;;;34.17;23.27;;;;;;;10.47;85.85;99922.00;10411276;28;20048;-70
2024/03/05 10:17:41;;;;;;;31.75;21.65;;;;;;;10.37;86.77;99911.28;10443757;28;21123;-69
2024/03/05 10:22:50;;;;;;;30.00;21.67;;;;;;;10.56;87.19;99931.84;10436872;28;20083;-70
2024/03/05 10:27:52;;;;;;;33.25;22.75;;;;;;;10.50;86.39;99933.22;10421830;28;20626;-68
2024/03/05 10:33:00;;;;;;;36.90;24.65;;;;;;;10.47;85.60;99916.69;10424988;28;20059;-66
2024/03/05 10:38:08;;;;;;;40.88;24.30;;;;;;;10.55;85.66;99917.72;10424114;28;20166;-69
2024/03/05 10:43:10;;;;;;;34.97;22.92;;;;;;;10.63;85.69;99913.53;10430209;28;20132;-71
2024/03/05 10:48:14;;;;;;;32.45;22.55;;;;;;;10.83;84.72;99922.47;10438073;28;20168;-70
2024/03/05 10:53:17;;;;;;;;;;;;;;;11.00;83.76;99923.66;10431545;28;20121;-70
2024/03/05 10:58:43;;;;;;;34.72;24.27;;;;;;;11.03;82.48;99923.38;10437698;28;21338;-69
2024/03/05 11:03:44;;;;;;;31.40;21.42;;;;;;;11.17;81.52;99924.81;10433596;28;20242;-69
2024/03/05 11:08:51;;;;;;;29.85;21.48;;;;;;;11.25;81.67;99925.00;10411888;28;20128;-70
2024/03/05 11:14:02;;;;;;;29.92;22.25;;;;;;;11.32;81.09;99921.66;10415536;28;20531;-70
2024/03/05 11:19:06;;;;;;;32.10;22.88;;;;;;;11.34;81.00;99926.00;10408160;28;20044;-66
2024/03/05 11:24:08;;;;;;;32.92;24.15;;;;;;;11.49;81.46;99925.47;10445121;28;20051;-70
2024/03/05 11:29:30;;;;;;;29.98;22.25;;;;;;;11.54;79.97;99906.41;10435628;28;20052;-63
2024/03/05 11:34:35;;;;;;;32.22;22.10;;;;;;;11.48;80.35;99901.63;10433269;28;20059;-62
2024/03/05 11:39:43;;;;;;;30.98;21.88;;;;;;;11.22;80.74;99923.44;10409435;28;20075;-63
2024/03/05 11:44:49;;;;;;;27.95;19.90;;;;;;;11.37;81.11;99918.59;10429229;28;20157;-62
2024/03/05 11:49:51;;;;;;;29.15;19.80;;;;;;;11.39;80.56;99918.44;10439416;28;20724;-62
2024/03/05 11:55:01;;;;;;;28.00;20.10;;;;;;;11.23;81.71;99893.16;10435428;28;20174;-67
2024/03/05 12:00:14;;;;;;;28.15;21.00;;;;;;;11.42;80.96;99921.66;10405677;28;20044;-67
2024/03/05 12:05:16;;;;;;;31.55;21.83;;;;;;;11.35;80.50;99919.69;10421758;28;20044;-63
2024/03/05 12:10:23;;;;;;;29.05;20.83;;;;;;;11.28;80.52;99914.91;10412351;28;20061;-63
2024/03/05 12:15:26;;;;;;;28.13;20.77;;;;;;;11.24;80.22;99916.16;10394712;28;20052;-64
2024/03/05 12:20:29;;;;;;;27.87;20.50;;;;;;;11.28;80.99;99922.06;10419451;28;21012;-64
2024/03/05 12:25:32;;;;;;;25.80;19.88;;;;;;;11.28;80.71;99922.91;10436663;28;20067;-63
2024/03/05 12:30:34;;;;;;;26.50;19.88;;;;;;;11.25;80.53;99922.34;10434891;28;20149;-63
2024/03/05 12:35:48;;;;;;;26.55;19.38;;;;;;;11.18;81.19;99918.53;10400849;28;20052;-63
2024/03/05 12:41:00;;;;;;;23.80;19.27;;;;;;;11.12;82.21;99917.25;10425837;28;20060;-64
2024/03/05 12:46:04;;;;;;;24.90;18.88;;;;;;;11.09;81.94;99918.38;10403718;28;20532;-63
2024/03/05 12:51:06;;;;;;;29.80;19.85;;;;;;;11.16;81.96;99921.34;10428768;28;20172;-65
2024/03/05 12:56:12;;;;;;;24.17;18.20;;;;;;;11.08;80.49;99921.16;10419899;28;20072;-64
2024/03/05 13:01:14;;;;;;;24.88;18.00;;;;;;;11.15;81.11;99932.94;10413299;28;20048;-64
2024/03/05 13:06:17;;;;;;;18.92;14.90;;;;;;;11.21;80.76;99920.91;10399285;28;20052;-64
2024/03/05 13:11:19;;;;;;;20.70;15.48;;;;;;;11.14;79.71;99921.47;10392181;28;20112;-64
2024/03/05 13:16:22;;;;;;;18.35;13.60;;;;;;;11.21;78.79;99934.25;10396594;28;20072;-63
2024/03/05 13:21:24;;;;;;;20.45;15.25;;;;;;;11.22;78.60;99934.09;10409014;28;20726;-64
2024/03/05 13:26:28;;;;;;;18.85;14.15;;;;;;;11.21;80.74;99921.75;10412383;28;20049;-62
2024/03/05 13:31:29;;;;;;;18.58;14.35;;;;;;;11.32;80.48;99929.66;10415770;28;20055;-63
2024/03/05 13:36:31;;;;;;;22.70;16.52;;;;;;;11.27;79.60;99931.91;10428940;28;20049;-63
2024/03/05 13:41:33;;;;;;;19.15;15.20;;;;;;;11.23;80.56;99935.81;10423366;28;21188;-62
2024/03/05 13:46:37;;;;;;;24.05;17.95;;;;;;;11.03;82.69;99934.88;10412851;28;20049;-64
2024/03/05 13:51:40;;;;;;;26.50;20.38;;;;;;;10.91;85.35;99925.28;10398987;28;20884;-63
2024/03/05 13:56:42;;;;;;;27.00;18.80;;;;;;;10.91;86.48;99931.50;10423300;28;20486;-63
2024/03/05 14:01:44;;;;;;;23.13;17.60;;;;;;;11.01;86.58;99938.66;10425297;28;20345;-63
2024/03/05 14:06:48;;;;;;;24.40;19.13;;;;;;;11.03;87.31;99939.38;10399322;28;20049;-63
2024/03/05 14:11:49;;;;;;;26.23;19.60;;;;;;;11.03;86.82;99932.22;10415205;28;20160;-62
2024/03/05 14:16:51;;;;;;;26.02;19.75;;;;;;;11.12;86.82;99943.88;10412284;28;20626;-62
2024/03/05 14:21:53;;;;;;;22.75;18.65;;;;;;;11.19;85.67;99949.53;10422772;28;20048;-63
2024/03/05 14:26:54;;;;;;;24.77;18.95;;;;;;;11.24;84.74;99948.13;10393489;28;20057;-63
2024/03/05 14:31:57;;;;;;;23.95;18.50;;;;;;;11.29;85.43;99945.91;10404161;28;20118;-62
2024/03/05 14:36:59;;;;;;;22.45;16.70;;;;;;;11.24;82.72;99947.28;10396745;28;20784;-62
2024/03/05 14:42:00;;;;;;;22.83;17.25;;;;;;;11.25;82.42;99952.47;10386550;28;20222;-63
2024/03/05 14:47:03;;;;;;;23.35;15.73;;;;;;;11.31;82.00;99943.09;10421960;28;20210;-63
2024/03/05 14:52:05;;;;;;;18.10;15.13;;;;;;;11.44;81.93;99949.03;10416772;28;20056;-62
2024/03/05 14:57:07;;;;;;;20.80;15.55;;;;;;;11.59;80.68;99954.81;10423861;28;20587;-63
2024/03/05 15:02:08;;;;;;;18.23;14.15;;;;;;;11.78;80.09;99958.50;10428726;28;20071;-65
2024/03/05 15:07:10;;;;;;;20.42;15.52;;;;;;;11.79;77.66;99933.53;10429857;28;20044;-64
2024/03/05 15:12:12;;;;;;;15.80;12.40;;;;;;;11.76;76.89;99947.13;10435264;28;20262;-62
2024/03/05 15:17:13;;;;;;;16.00;12.07;;;;;;;11.67;76.13;99954.97;10432820;28;20371;-62
2024/03/05 15:22:15;;;;;;;13.30;10.98;;;;;;;11.63;76.92;99952.72;10426085;28;20113;-63
2024/03/05 15:27:17;;;;;;;11.75;9.60;;;;;;;11.54;76.08;99954.38;10407477;28;20057;-63
2024/03/05 15:32:21;;;;;;;13.27;11.32;;;;;;;11.47;77.49;99953.25;10373549;28;20204;-63
2024/03/05 15:37:24;;;;;;;14.45;12.35;;;;;;;11.40;77.34;99950.28;10385266;28;20533;-63
2024/03/05 15:42:29;;;;;;;13.93;10.50;;;;;;;11.31;78.90;99962.59;10409568;28;20052;-63
2024/03/05 15:47:30;;;;;;;12.02;9.38;;;;;;;11.04;79.85;99962.38;10420816;28;20052;-63
2024/03/05 15:52:31;;;;;;;9.45;8.48;;;;;;;11.02;78.95;99966.97;10419899;28;20565;-63
2024/03/05 15:57:53;;;;;;;9.05;7.32;;;;;;;10.99;78.52;99972.56;10427563;28;20049;-63
2024/03/05 16:02:59;;;;;;;7.47;6.68;;;;;;;10.86;78.71;99970.13;10428090;28;20137;-63
2024/03/05 16:08:03;;;;;;;5.60;4.53;;;;;;;10.89;78.24;99989.34;10401796;28;20529;-64
2024/03/05 16:13:06;;;;;;;2.83;2.45;;;;;;;10.91;75.93;99994.53;10361345;28;20068;-63
2024/03/05 16:18:08;;;;;;;3.53;2.47;;;;;;;10.89;75.93;100000.00;10413674;28;20115;-64
2024/03/05 16:23:10;;;;;;;3.00;2.65;;;;;;;10.88;76.52;99995.63;10378639;28;20198;-63
2024/03/05 16:28:17;;;;;;;4.72;2.88;;;;;;;10.96;76.43;100005.66;10429737;28;20045;-63
2024/03/05 16:33:18;;;;;;;4.40;2.70;;;;;;;10.84;77.95;99993.38;10406001;28;20101;-63
2024/03/05 16:38:20;;;;;;;4.53;3.13;;;;;;;11.08;79.00;100006.38;10417606;28;20187;-62
2024/03/05 16:43:24;;;;;;;4.43;3.72;;;;;;;11.21;78.09;100017.66;10406600;28;20067;-63
2024/03/05 16:48:26;;;;;;;7.22;3.75;;;;;;;11.22;78.29;100023.84;10399241;28;20056;-63
2024/03/05 16:53:32;;;;;;;5.57;4.18;;;;;;;11.19;78.04;100021.47;10407913;28;20151;-63
2024/03/05 16:58:37;;;;;;;6.28;4.10;;;;;;;11.16;78.25;100025.22;10431503;28;20782;-63
2024/03/05 17:03:41;;;;;;;5.07;4.00;;;;;;;11.20;78.42;100026.66;10430362;28;20212;-63
2024/03/05 17:08:51;;;;;;;4.65;3.88;;;;;;;11.22;78.22;100030.03;10430118;28;20123;-66
2024/03/05 17:13:53;;;;;;;7.00;4.70;;;;;;;11.22;78.18;100038.00;10414116;28;20505;-63
2024/03/05 17:18:55;;;;;;;4.53;4.13;;;;;;;11.24;78.69;100035.22;10404423;28;20056;-63
2024/03/05 17:23:56;;;;;;;5.00;3.80;;;;;;;11.25;78.14;100040.41;10404575;28;20062;-62
2024/03/05 17:29:05;;;;;;;4.70;4.15;;;;;;;11.25;77.89;100045.75;10429505;28;20056;-62
2024/03/05 17:34:08;;;;;;;5.35;3.90;;;;;;;11.17;77.20;100047.38;10414090;28;20075;-63
2024/03/05 17:39:14;;;;;;;4.40;3.33;;;;;;;11.02;77.00;100025.56;10414727;28;20060;-63
2024/03/05 17:44:17;;;;;;;3.97;2.83;;;;;;;11.18;76.28;100057.91;10407608;28;20041;-62
2024/03/05 17:49:19;;;;;;;3.22;2.92;;;;;;;11.21;75.91;100060.28;10399617;28;20649;-63
2024/03/05 17:54:21;;;;;;;3.85;3.42;;;;;;;11.23;76.07;100062.81;10410286;28;20206;-63
2024/03/05 17:59:22;;;;;;;4.30;3.40;;;;;;;11.23;75.90;100062.81;10425421;28;20058;-64
2024/03/05 18:04:27;;;;;;;5.35;3.50;;;;;;;11.21;75.41;100070.94;10411778;28;20048;-64
2024/03/05 18:09:30;;;;;;;4.53;3.67;;;;;;;11.22;76.13;100077.97;10417277;28;20071;-63
2024/03/05 18:14:31;;;;;;;4.55;3.08;;;;;;;11.15;75.17;100092.78;10438147;28;20273;-64
2024/03/05 18:19:35;;;;;;;5.13;3.10;;;;;;;11.19;75.82;100088.91;10416153;28;20195;-66
2024/03/05 18:24:36;;;;;;;4.60;3.53;;;;;;;11.23;76.51;100087.66;10426947;28;20203;-64
2024/03/05 18:29:38;;;;;;;4.35;3.55;;;;;;;11.24;76.36;100092.00;10425516;28;20180;-62
2024/03/05 18:34:42;;;;;;;5.35;4.53;;;;;;;11.23;76.91;100090.34;10431148;28;20441;-64
2024/03/05 18:39:45;;;;;;;7.25;5.57;;;;;;;11.28;76.37;100095.25;10425134;28;20123;-63
2024/03/05 18:44:47;;;;;;;5.18;4.53;;;;;;;11.27;75.86;100094.44;10440649;28;20073;-62
2024/03/05 18:49:51;;;;;;;5.13;4.68;;;;;;;11.24;76.04;100096.50;10422756;28;20160;-64
2024/03/05 18:54:52;;;;;;;7.95;6.75;;;;;;;11.19;76.89;100093.41;10432030;28;20218;-63
2024/03/05 18:59:56;;;;;;;6.70;6.10;;;;;;;11.00;77.17;100072.81;10404419;28;20563;-63
2024/03/05 19:04:57;;;;;;;7.13;6.43;;;;;;;11.17;77.41;100093.53;10422894;28;20052;-64
2024/03/05 19:09:59;;;;;;;9.93;6.88;;;;;;;11.16;77.67;100083.84;10427843;28;20151;-63
2024/03/05 19:15:02;;;;;;;7.43;5.65;;;;;;;11.23;76.80;100101.00;10420793;28;20075;-64
2024/03/05 19:20:05;;;;;;;41.63;28.58;;;;;;;11.18;76.53;100092.53;10436832;28;20579;-64
2024/03/05 19:25:10;;;;;;;15.52;11.15;;;;;;;11.14;76.41;100085.81;10390909;28;20056;-64
2024/03/05 19:30:16;;;;;;;6.30;4.95;;;;;;;11.20;75.40;100093.25;10423426;28;20086;-64
2024/03/05 19:35:24;;;;;;;6.40;5.28;;;;;;;11.17;75.63;100105.97;10429399;28;20048;-64
2024/03/05 19:40:26;;;;;;;5.80;4.65;;;;;;;11.14;75.80;100107.09;10432256;28;20041;-65
2024/03/05 19:45:27;;;;;;;4.95;4.28;;;;;;;11.08;75.32;100110.25;10407352;28;20461;-65
2024/03/05 19:50:33;;;;;;;6.68;5.60;;;;;;;10.99;76.53;100111.06;10411057;28;20048;-64
2024/03/05 19:55:36;;;;;;;7.10;6.35;;;;;;;10.90;77.62;100116.19;10419341;28;20128;-65
2024/03/05 20:00:38;;;;;;;8.63;7.82;;;;;;;10.92;78.32;100122.22;10432517;28;20676;-64
2024/03/05 20:05:40;;;;;;;9.98;7.80;;;;;;;10.83;78.89;100115.00;10399568;28;20694;-65
2024/03/05 20:10:44;;;;;;;7.55;6.85;;;;;;;10.95;79.23;100121.97;10418109;28;20059;-65
2024/03/05 20:15:46;;;;;;;8.52;7.53;;;;;;;11.08;79.01;100118.25;10412416;28;20060;-65
2024/03/05 20:20:48;;;;;;;8.70;7.53;;;;;;;11.04;78.47;100108.88;10419444;28;20060;-65
2024/03/05 20:25:51;;;;;;;8.65;7.53;;;;;;;10.92;77.86;100108.91;10430547;28;20048;-65
2024/03/05 20:30:55;;;;;;;7.82;7.03;;;;;;;10.93;78.38;100141.72;10406627;28;20063;-64
2024/03/05 20:35:57;;;;;;;9.80;8.70;;;;;;;10.86;79.46;100136.06;10399975;28;20124;-64
2024/03/05 20:40:58;;;;;;;11.77;9.18;;;;;;;10.89;79.80;100141.13;10405041;28;22665;-65
2024/03/05 20:46:00;;;;;;;10.27;8.50;;;;;;;10.95;80.28;100150.44;10430529;28;20090;-65
2024/03/05 20:51:02;;;;;;;9.38;8.27;;;;;;;11.01;80.31;100143.75;10385151;28;20036;-66
2024/03/05 20:56:04;;;;;;;9.57;8.57;;;;;;;11.02;80.35;100146.28;10397818;28;20709;-64
2024/03/05 21:01:08;;;;;;;9.85;8.85;;;;;;;11.03;80.10;100147.13;10411069;28;20077;-66
2024/03/05 21:06:10;;;;;;;13.43;11.23;;;;;;;11.01;80.35;100138.41;10414324;28;20048;-64
2024/03/05 21:11:12;;;;;;;27.45;21.50;;;;;;;11.00;80.79;100152.69;10413331;28;20071;-65
2024/03/05 21:16:13;;;;;;;16.45;13.90;;;;;;;10.98;81.09;100162.66;10411779;28;20056;-65
2024/03/05 21:21:15;;;;;;;13.20;11.80;;;;;;;11.01;81.10;100162.41;10408279;28;20262;-65
2024/03/05 21:26:18;;;;;;;11.73;10.38;;;;;;;10.94;81.00;100165.56;10402052;28;20061;-63
2024/03/05 21:31:46;;;;;;;14.50;11.88;;;;;;;10.86;80.72;100167.19;10415783;28;20040;-64
2024/03/05 21:36:50;;;;;;;13.93;10.65;;;;;;;10.93;80.87;100181.69;10366063;28;20092;-65
2024/03/05 21:41:53;;;;;;;10.27;9.18;;;;;;;10.96;80.23;100178.75;10407906;28;20052;-64
2024/03/05 21:46:54;;;;;;;10.48;8.93;;;;;;;10.90;79.96;100181.91;10400397;28;20048;-64
2024/03/05 21:51:59;;;;;;;10.65;9.55;;;;;;;10.91;80.20;100186.28;10427873;28;20056;-66
2024/03/05 21:57:00;;;;;;;9.77;8.88;;;;;;;10.91;79.46;100180.94;10403112;28;20060;-65
2024/03/05 22:02:06;;;;;;;9.68;8.43;;;;;;;10.90;79.02;100174.78;10431063;28;20048;-65
2024/03/05 22:07:08;;;;;;;8.57;7.70;;;;;;;10.93;78.71;100174.53;10435170;28;20049;-66
2024/03/05 22:12:09;;;;;;;8.50;7.70;;;;;;;10.90;78.36;100174.78;10431358;28;20151;-65
2024/03/05 22:17:11;;;;;;;6.80;6.13;;;;;;;10.93;77.30;100187.00;10407626;28;20088;-65
2024/03/05 22:22:13;;;;;;;7.10;4.95;;;;;;;10.91;75.98;100181.81;10432211;28;20044;-65
2024/03/05 22:27:14;;;;;;;5.43;4.90;;;;;;;10.98;76.62;100187.47;10420089;28;20044;-66
2024/03/05 22:32:16;;;;;;;5.43;4.90;;;;;;;10.96;75.15;100189.41;10425784;28;20052;-65
2024/03/05 22:37:19;;;;;;;5.95;5.22;;;;;;;10.93;75.27;100187.84;10414325;28;20709;-66
2024/03/05 22:42:22;;;;;;;6.38;4.75;;;;;;;10.94;75.92;100184.22;10434621;28;20184;-66
2024/03/05 22:47:24;;;;;;;6.70;6.00;;;;;;;10.91;75.52;100181.81;10429356;28;20052;-65
2024/03/05 22:52:25;;;;;;;6.95;5.32;;;;;;;10.87;75.43;100191.03;10416138;28;20646;-66
2024/03/05 22:57:26;;;;;;;6.18;5.30;;;;;;;10.87;75.23;100191.03;10434763;28;20102;-64
2024/03/05 23:02:31;;;;;;;8.63;5.97;;;;;;;10.80;75.32;100197.81;10434613;28;20068;-67
2024/03/05 23:07:32;;;;;;;6.88;6.03;;;;;;;10.80;75.44;100189.81;10417896;28;20693;-66